Time;durP1;ratioP1;P1;durP2;ratioP2;P2;SDS_P1;SDS_P2;PMS_P1;PMS_P2;Temp;Humidity;BMP_temperature;BMP_pressure;BME280_temperature;BME280_humidity;BME280_pressure;Samples;Min_cycle;Max_cycle;Signal;HPM_P1;HPM_P2
2021/11/20 00:00:26;;;;;;;27.08;10.05;;;10.10;65.10;;;;;;6267119;28;20041;-79
2021/11/20 00:03:28;;;;;;;21.95;9.25;;;10.10;65.20;;;;;;6271728;28;20025;-77
2021/11/20 00:06:33;;;;;;;23.17;10.23;;;10.10;65.20;;;;;;6273367;28;20033;-76
2021/11/20 00:09:34;;;;;;;24.58;9.70;;;10.10;65.30;;;;;;6272638;28;20033;-77
2021/11/20 00:12:36;;;;;;;23.17;9.80;;;10.10;65.30;;;;;;6277875;28;20094;-77
2021/11/20 00:15:43;;;;;;;18.52;8.00;;;10.00;66.10;;;;;;6274596;28;20045;-77
2021/11/20 00:18:45;;;;;;;18.27;8.40;;;10.00;65.40;;;;;;6269407;28;20039;-77
2021/11/20 00:21:52;;;;;;;25.88;9.43;;;10.00;65.50;;;;;;6229321;28;20042;-78
2021/11/20 00:24:59;;;;;;;16.23;8.02;;;10.00;65.70;;;;;;6222620;28;20033;-78
2021/11/20 00:28:00;;;;;;;23.50;8.73;;;9.90;65.80;;;;;;6250115;28;20077;-77
2021/11/20 00:31:06;;;;;;;22.58;8.48;;;9.90;65.90;;;;;;6255131;28;20127;-76
2021/11/20 00:34:09;;;;;;;17.20;7.97;;;9.90;65.90;;;;;;6216441;28;20042;-77
2021/11/20 00:37:11;;;;;;;22.42;9.20;;;9.90;65.90;;;;;;6228862;28;20037;-77
2021/11/20 00:40:25;;;;;;;21.95;8.85;;;9.90;65.80;;;;;;6235077;28;20044;-78
2021/11/20 00:43:27;;;;;;;19.75;9.32;;;9.90;65.70;;;;;;6231743;28;20069;-77
2021/11/20 00:46:31;;;;;;;21.45;9.23;;;10.00;65.70;;;;;;6243624;28;20049;-76
2021/11/20 00:49:32;;;;;;;21.58;9.52;;;10.00;65.70;;;;;;6219441;28;20095;-77
2021/11/20 00:52:33;;;;;;;19.20;8.52;;;10.00;65.60;;;;;;6249312;28;20457;-78
2021/11/20 00:55:35;;;;;;;22.13;8.05;;;10.00;65.60;;;;;;6258898;28;20449;-77
2021/11/20 00:58:36;;;;;;;20.67;8.57;;;10.00;65.60;;;;;;6260245;28;20095;-76
2021/11/20 01:01:45;;;;;;;19.20;8.88;;;10.00;65.60;;;;;;6270279;28;20037;-76
2021/11/20 01:04:46;;;;;;;20.02;9.15;;;9.90;65.50;;;;;;6257308;28;20033;-77
2021/11/20 01:07:47;;;;;;;19.48;8.30;;;9.90;65.60;;;;;;6265276;28;20048;-76
2021/11/20 01:10:52;;;;;;;23.00;9.60;;;9.80;65.70;;;;;;6244935;28;20048;-76
2021/11/20 01:13:55;;;;;;;21.50;9.27;;;9.80;65.80;;;;;;6252644;28;20095;-76
2021/11/20 01:16:57;;;;;;;19.05;8.50;;;9.80;65.80;;;;;;6286282;28;20034;-77
2021/11/20 01:19:59;;;;;;;18.90;9.45;;;9.80;65.80;;;;;;6254532;28;20071;-77
2021/11/20 01:23:27;;;;;;;17.75;8.23;;;9.70;65.70;;;;;;6250185;28;20026;-77
2021/11/20 01:26:36;;;;;;;21.25;9.10;;;9.60;65.70;;;;;;6244535;28;20061;-77
2021/11/20 01:29:38;;;;;;;15.55;8.20;;;9.60;65.90;;;;;;6245833;28;20029;-76
2021/11/20 01:32:39;;;;;;;17.13;8.05;;;9.60;66.10;;;;;;6252149;28;20501;-76
2021/11/20 01:35:40;;;;;;;25.13;8.88;;;9.50;66.20;;;;;;6246136;28;20029;-78
2021/11/20 01:38:49;;;;;;;17.85;7.72;;;9.50;66.20;;;;;;6243786;28;20033;-77
2021/11/20 01:42:07;;;;;;;23.10;8.85;;;9.50;66.30;;;;;;6236771;28;20060;-77
2021/11/20 01:45:26;;;;;;;15.43;8.00;;;9.40;66.40;;;;;;6239430;28;20116;-77
2021/11/20 01:48:51;;;;;;;16.48;7.63;;;9.40;66.60;;;;;;6272268;28;20029;-77
2021/11/20 01:51:57;;;;;;;16.98;8.00;;;9.30;66.70;;;;;;6245461;28;20114;-76
2021/11/20 01:55:35;;;;;;;18.92;7.72;;;9.30;66.90;;;;;;6254116;28;20037;-76
2021/11/20 01:58:45;;;;;;;18.30;7.50;;;9.20;66.90;;;;;;6241759;28;20033;-76
2021/11/20 02:02:27;;;;;;;21.55;7.85;;;9.20;67.20;;;;;;6249777;28;20037;-76
2021/11/20 02:05:52;;;;;;;21.25;8.52;;;9.10;67.30;;;;;;6269976;28;20105;-76
2021/11/20 02:09:47;;;;;;;17.25;7.47;;;9.10;67.20;;;;;;6274445;28;20033;-76
2021/11/20 02:13:06;;;;;;;;;;;9.20;67.20;;;;;;6278011;28;20386;-76
2021/11/20 02:16:18;;;;;;;23.42;7.43;;;9.10;67.10;;;;;;6263334;28;19917;-76
2021/11/20 02:19:24;;;;;;;20.23;8.25;;;9.10;67.10;;;;;;6239605;28;20125;-76
2021/11/20 02:22:25;;;;;;;17.75;7.18;;;9.10;67.10;;;;;;6258618;28;20120;-76
2021/11/20 02:25:26;;;;;;;14.13;7.28;;;9.10;67.20;;;;;;6245965;28;20071;-76
2021/11/20 02:28:39;;;;;;;19.33;9.05;;;9.10;67.20;;;;;;6231435;28;20037;-76
2021/11/20 02:31:56;;;;;;;17.77;8.25;;;9.10;67.30;;;;;;6259783;28;20764;-76
2021/11/20 02:35:13;;;;;;;14.75;7.47;;;9.10;67.20;;;;;;6258456;28;20045;-76
2021/11/20 02:38:27;;;;;;;18.38;8.07;;;9.20;67.30;;;;;;6249632;28;20022;-76
2021/11/20 02:41:38;;;;;;;13.32;6.78;;;9.10;67.10;;;;;;6252004;28;20442;-77
2021/11/20 02:44:40;;;;;;;18.35;7.93;;;9.20;67.10;;;;;;6253617;28;20042;-76
2021/11/20 02:47:42;;;;;;;15.77;7.38;;;9.20;67.10;;;;;;6265275;28;20435;-77
2021/11/20 02:50:52;;;;;;;17.65;7.72;;;9.20;67.10;;;;;;6248834;28;20086;-77
2021/11/20 02:53:59;;;;;;;21.45;8.70;;;9.20;67.00;;;;;;6249134;28;20037;-76
2021/11/20 02:57:08;;;;;;;18.00;7.65;;;9.20;66.90;;;;;;6238894;28;20037;-77
2021/11/20 03:00:12;;;;;;;;;;;9.20;66.90;;;;;;6276449;28;20045;-78
2021/11/20 03:03:16;;;;;;;16.45;7.03;;;9.20;66.80;;;;;;6275681;28;19992;-76
2021/11/20 03:06:18;;;;;;;16.63;7.20;;;9.20;66.90;;;;;;6260243;28;20041;-77
2021/11/20 03:09:22;;;;;;;18.83;7.32;;;9.10;66.90;;;;;;6285832;28;20043;-77
2021/11/20 03:12:24;;;;;;;18.08;7.10;;;9.10;67.10;;;;;;6249769;28;20029;-77
2021/11/20 03:15:30;;;;;;;21.50;8.38;;;9.10;67.20;;;;;;6263052;28;20048;-77
2021/11/20 03:18:31;;;;;;;18.95;8.27;;;9.10;67.20;;;;;;6263022;28;20056;-76
2021/11/20 03:21:35;;;;;;;22.80;7.40;;;9.10;67.20;;;;;;6264745;28;20044;-76
2021/11/20 03:24:36;;;;;;;27.20;8.70;;;9.10;67.10;;;;;;6267076;28;20025;-77
2021/11/20 03:27:37;;;;;;;19.02;8.52;;;9.20;67.20;;;;;;6246357;28;20076;-78
2021/11/20 03:30:40;;;;;;;21.77;9.18;;;9.20;67.10;;;;;;6254972;28;20140;-76
2021/11/20 03:33:41;;;;;;;17.27;8.45;;;9.20;67.10;;;;;;6236163;28;20033;-76
2021/11/20 03:36:42;;;;;;;20.90;8.10;;;9.10;67.00;;;;;;6261566;28;20051;-76
2021/11/20 03:39:50;;;;;;;16.92;7.53;;;9.10;67.10;;;;;;6253806;28;20168;-77
2021/11/20 03:42:52;;;;;;;20.00;8.00;;;9.10;67.00;;;;;;6261683;28;20025;-76
2021/11/20 03:45:53;;;;;;;18.17;7.05;;;9.00;67.00;;;;;;6253987;28;20029;-77
2021/11/20 03:48:54;;;;;;;23.40;8.43;;;9.10;66.90;;;;;;6269309;28;20041;-77
2021/11/20 03:51:55;;;;;;;27.42;9.32;;;9.00;66.80;;;;;;6269293;28;20390;-77
2021/11/20 03:54:57;;;;;;;18.95;7.75;;;9.00;67.00;;;;;;6247734;28;20458;-76
2021/11/20 03:57:58;;;;;;;16.48;7.28;;;8.90;67.10;;;;;;6261841;28;20033;-77
2021/11/20 04:01:09;;;;;;;19.42;8.43;;;8.90;67.20;;;;;;6268246;28;20048;-77
2021/11/20 04:04:11;;;;;;;15.88;7.78;;;8.90;67.20;;;;;;6265354;28;20108;-76
2021/11/20 04:07:14;;;;;;;16.38;8.30;;;8.80;67.10;;;;;;6247595;28;20034;-76
2021/11/20 04:10:19;;;;;;;18.75;8.00;;;8.80;67.30;;;;;;6265088;28;20076;-77
2021/11/20 04:13:21;;;;;;;20.15;8.18;;;8.80;67.20;;;;;;6247100;28;20037;-76
2021/11/20 04:16:24;;;;;;;23.05;8.75;;;8.80;67.70;;;;;;6234868;28;20036;-77
2021/11/20 04:19:28;;;;;;;16.80;7.63;;;8.70;67.10;;;;;;6250918;28;20137;-77
2021/11/20 04:22:29;;;;;;;15.93;7.57;;;8.70;67.20;;;;;;6269856;28;20519;-77
2021/11/20 04:25:30;;;;;;;23.48;8.45;;;8.70;67.20;;;;;;6285385;28;20136;-78
2021/11/20 04:28:33;;;;;;;18.13;7.85;;;8.60;67.20;;;;;;6271535;28;20042;-76
2021/11/20 04:31:46;;;;;;;16.63;8.02;;;8.50;67.50;;;;;;6247870;28;20082;-76
2021/11/20 04:34:47;;;;;;;19.95;8.05;;;8.50;67.50;;;;;;6250095;28;20123;-76
2021/11/20 04:37:48;;;;;;;19.85;8.25;;;8.60;67.50;;;;;;6261124;28;20530;-76
2021/11/20 04:40:50;;;;;;;22.63;8.43;;;8.60;67.40;;;;;;6263922;28;20040;-77
2021/11/20 04:43:52;;;;;;;15.88;7.30;;;8.60;67.50;;;;;;6250873;28;20041;-77
2021/11/20 04:46:53;;;;;;;14.88;7.22;;;8.50;67.30;;;;;;6264266;28;20045;-77
2021/11/20 04:49:55;;;;;;;16.42;7.47;;;8.50;67.20;;;;;;6265922;28;20097;-77
2021/11/20 04:52:56;;;;;;;14.60;7.57;;;8.50;67.30;;;;;;6266565;28;20032;-77
2021/11/20 04:55:58;;;;;;;20.25;8.57;;;8.40;67.40;;;;;;6261539;28;20033;-77
2021/11/20 04:59:01;;;;;;;17.25;8.23;;;8.40;67.40;;;;;;6267802;28;20452;-77
2021/11/20 05:02:05;;;;;;;14.02;6.72;;;8.30;67.50;;;;;;6266546;28;20041;-77
2021/11/20 05:05:07;;;;;;;17.23;8.55;;;8.30;67.60;;;;;;6236953;28;20033;-76
2021/11/20 05:08:09;;;;;;;20.48;8.30;;;8.30;67.70;;;;;;6266491;28;20084;-76
2021/11/20 05:11:11;;;;;;;18.85;8.07;;;8.30;67.80;;;;;;6239302;28;20276;-77
2021/11/20 05:14:33;;;;;;;19.70;8.00;;;8.30;67.80;;;;;;6260280;28;20099;-77
2021/11/20 05:17:34;;;;;;;23.40;8.15;;;8.30;67.70;;;;;;6238185;28;20033;-77
2021/11/20 05:20:36;;;;;;;15.23;6.50;;;8.30;67.70;;;;;;6269856;28;20521;-76
2021/11/20 05:23:37;;;;;;;17.25;7.82;;;8.20;67.70;;;;;;6245840;28;20068;-77
2021/11/20 05:26:38;;;;;;;23.50;8.82;;;8.20;67.70;;;;;;6261509;28;20072;-77
2021/11/20 05:29:49;;;;;;;14.25;6.47;;;8.10;67.60;;;;;;6243694;28;20374;-77
2021/11/20 05:32:50;;;;;;;18.60;7.38;;;8.10;67.80;;;;;;6254078;28;20037;-77
2021/11/20 05:36:17;;;;;;;16.00;7.10;;;8.00;68.00;;;;;;6262225;28;20033;-76
2021/11/20 05:39:18;;;;;;;15.18;7.43;;;8.00;68.20;;;;;;6251577;28;20025;-78
2021/11/20 05:42:20;;;;;;;16.65;7.65;;;8.00;68.20;;;;;;6244838;28;20476;-76
2021/11/20 05:45:28;;;;;;;17.10;7.93;;;8.00;68.20;;;;;;6278156;28;20032;-77
2021/11/20 05:48:30;;;;;;;14.07;6.90;;;8.00;68.30;;;;;;6275516;28;20450;-75
2021/11/20 05:51:36;;;;;;;18.77;7.10;;;8.10;68.20;;;;;;6280000;28;20420;-77
2021/11/20 05:54:37;;;;;;;16.13;7.55;;;8.10;68.10;;;;;;6270070;28;20036;-76
2021/11/20 05:57:44;;;;;;;23.83;7.43;;;8.10;68.20;;;;;;6235493;28;20041;-76
2021/11/20 06:00:52;;;;;;;15.27;6.72;;;8.10;68.10;;;;;;6239023;28;20077;-78
2021/11/20 06:03:53;;;;;;;10.82;5.68;;;8.10;68.30;;;;;;6233894;28;20414;-76
2021/11/20 06:06:54;;;;;;;14.18;6.85;;;8.10;68.30;;;;;;6257812;28;20040;-77
2021/11/20 06:09:55;;;;;;;12.15;5.97;;;8.10;68.40;;;;;;6282145;28;20128;-76
2021/11/20 06:13:00;;;;;;;13.60;5.80;;;8.10;68.40;;;;;;6257990;28;20063;-77
2021/11/20 06:16:05;;;;;;;12.88;6.18;;;8.10;68.30;;;;;;6263438;28;20124;-77
2021/11/20 06:19:06;;;;;;;17.58;6.35;;;8.10;68.30;;;;;;6282755;28;20025;-77
2021/11/20 06:22:08;;;;;;;16.77;7.10;;;8.10;68.30;;;;;;6252028;28;20048;-77
2021/11/20 06:25:10;;;;;;;10.95;5.85;;;8.10;68.30;;;;;;6255421;28;20367;-77
2021/11/20 06:28:11;;;;;;;10.52;5.32;;;8.10;68.30;;;;;;6265107;28;20342;-77
2021/11/20 06:31:13;;;;;;;10.02;4.60;;;8.10;68.20;;;;;;6225178;28;20033;-76
2021/11/20 06:34:20;;;;;;;23.75;6.18;;;8.00;68.10;;;;;;6254918;28;20036;-77
2021/11/20 06:37:41;;;;;;;11.45;6.07;;;8.00;68.20;;;;;;6260954;28;20416;-77
2021/11/20 06:40:47;;;;;;;8.18;4.95;;;8.00;68.20;;;;;;6243550;28;20046;-77
2021/11/20 06:43:51;;;;;;;14.93;6.07;;;7.90;68.10;;;;;;6282701;28;20480;-77
2021/11/20 06:46:52;;;;;;;12.52;6.60;;;7.90;67.90;;;;;;6257164;28;20041;-76
2021/11/20 06:49:53;;;;;;;11.95;6.25;;;7.80;67.60;;;;;;6259486;28;20067;-76
2021/11/20 06:52:55;;;;;;;14.98;6.80;;;7.80;67.90;;;;;;6247607;28;20029;-77
2021/11/20 06:56:27;;;;;;;17.73;6.00;;;7.70;68.00;;;;;;6210705;28;20029;-76
2021/11/20 07:03:35;;;;;;;11.38;5.22;;;7.80;68.00;;;;;;6198163;28;20050;-77
2021/11/20 07:06:53;;;;;;;10.75;5.80;;;7.70;67.70;;;;;;6195184;28;20685;-77
2021/11/20 07:09:55;;;;;;;13.40;6.22;;;7.60;67.60;;;;;;6191386;28;20042;-77
2021/11/20 07:12:57;;;;;;;11.82;6.30;;;7.60;67.80;;;;;;6210452;28;20113;-77
2021/11/20 07:15:59;;;;;;;15.57;5.50;;;7.60;67.90;;;;;;6202177;28;20053;-77
2021/11/20 07:19:02;;;;;;;13.35;6.30;;;7.60;68.00;;;;;;6212726;28;20026;-77
2021/11/20 07:22:38;;;;;;;14.00;6.55;;;7.60;68.00;;;;;;6146993;28;20043;-77
2021/11/20 07:25:49;;;;;;;19.20;7.30;;;7.60;67.80;;;;;;6139510;28;20037;-79
2021/11/20 07:28:51;;;;;;;17.20;8.25;;;7.60;67.70;;;;;;6153296;28;20063;-76
2021/11/20 07:31:53;;;;;;;14.32;6.75;;;7.60;67.80;;;;;;6146275;28;20042;-76
2021/11/20 07:34:55;;;;;;;14.82;6.85;;;7.60;67.80;;;;;;6195734;28;20471;-77
2021/11/20 07:37:56;;;;;;;16.50;7.03;;;7.60;67.50;;;;;;6194305;28;20030;-73
2021/11/20 07:40:58;;;;;;;15.88;7.32;;;7.60;67.40;;;;;;6198313;28;20042;-75
2021/11/20 07:44:00;;;;;;;18.77;6.65;;;7.60;67.40;;;;;;6203251;28;20049;-76
2021/11/20 07:47:06;;;;;;;12.85;5.82;;;7.60;67.30;;;;;;6219598;28;20065;-76
2021/11/20 07:50:15;;;;;;;14.98;6.43;;;7.60;67.20;;;;;;6172825;28;20037;-76
2021/11/20 07:53:17;;;;;;;17.55;7.38;;;7.60;67.40;;;;;;6192251;28;20045;-75
2021/11/20 07:56:19;;;;;;;17.67;6.53;;;7.60;67.30;;;;;;6220191;28;20120;-70
2021/11/20 07:59:25;;;;;;;20.08;7.28;;;7.60;67.00;;;;;;6266240;28;20044;-74
2021/11/20 08:02:31;;;;;;;34.13;6.40;;;7.60;66.90;;;;;;6264723;28;20052;-75
2021/11/20 08:05:33;;;;;;;15.10;6.60;;;7.50;67.00;;;;;;6267668;28;20036;-76
2021/11/20 08:08:49;;;;;;;21.98;7.45;;;7.50;67.10;;;;;;6254105;28;20344;-77
2021/11/20 08:12:06;;;;;;;12.90;6.55;;;7.50;67.10;;;;;;6244363;28;20060;-77
2021/11/20 08:15:27;;;;;;;16.85;8.05;;;7.50;67.00;;;;;;6265667;28;20033;-76
2021/11/20 08:18:49;;;;;;;14.18;6.35;;;7.50;66.80;;;;;;6253325;28;20060;-77
2021/11/20 08:22:19;;;;;;;14.43;8.23;;;7.50;66.80;;;;;;6236899;28;20037;-75
2021/11/20 08:25:24;;;;;;;21.95;8.30;;;7.50;66.90;;;;;;6216171;28;20033;-75
2021/11/20 08:28:26;;;;;;;16.33;7.53;;;7.50;66.90;;;;;;6223195;28;20042;-76
2021/11/20 08:31:28;;;;;;;12.57;6.78;;;7.60;67.20;;;;;;6231382;28;20056;-76
2021/11/20 08:34:48;;;;;;;15.63;7.38;;;7.70;67.10;;;;;;6238299;28;20359;-75
2021/11/20 08:38:07;;;;;;;;;;;7.70;67.10;;;;;;6212844;28;20473;-76
2021/11/20 08:41:18;;;;;;;19.00;9.25;;;7.80;67.00;;;;;;6234472;28;20432;-76
2021/11/20 08:44:19;;;;;;;15.48;7.32;;;7.90;66.80;;;;;;6240048;28;20030;-76
2021/11/20 08:47:27;;;;;;;20.50;8.30;;;7.90;66.60;;;;;;6227550;28;20040;-76
2021/11/20 08:50:34;;;;;;;17.80;7.50;;;8.00;66.70;;;;;;6224263;28;20038;-75
2021/11/20 08:53:35;;;;;;;12.43;5.50;;;8.00;66.80;;;;;;6217639;28;20051;-76
2021/11/20 08:56:43;;;;;;;15.20;8.05;;;7.90;66.70;;;;;;6219266;28;20037;-76
2021/11/20 08:59:50;;;;;;;22.10;9.43;;;7.90;66.90;;;;;;6262392;28;20529;-76
2021/11/20 09:03:24;;;;;;;18.05;7.35;;;8.00;67.20;;;;;;6241193;28;20454;-77
2021/11/20 09:06:46;;;;;;;19.83;9.15;;;8.10;67.10;;;;;;6251103;28;20089;-75
2021/11/20 09:09:53;;;;;;;20.67;9.10;;;8.10;67.00;;;;;;6271378;28;20076;-76
2021/11/20 09:12:54;;;;;;;20.45;9.07;;;8.20;67.30;;;;;;6240604;28;20036;-76
2021/11/20 09:16:05;;;;;;;27.65;11.32;;;8.30;67.10;;;;;;6237525;28;20036;-76
2021/11/20 09:19:09;;;;;;;23.63;10.75;;;8.30;67.00;;;;;;6261704;28;20367;-77
2021/11/20 09:22:11;;;;;;;27.17;11.40;;;8.40;66.90;;;;;;6281640;28;20060;-75
2021/11/20 09:25:22;;;;;;;26.10;10.65;;;8.40;67.00;;;;;;6251590;28;20490;-76
2021/11/20 09:28:25;;;;;;;28.70;11.38;;;8.50;67.10;;;;;;6220204;28;20047;-76
2021/11/20 09:31:29;;;;;;;30.50;12.05;;;8.60;67.00;;;;;;6240749;28;20394;-76
2021/11/20 09:34:31;;;;;;;31.67;11.93;;;8.80;66.90;;;;;;6265243;28;20429;-75
2021/11/20 09:37:32;;;;;;;29.58;11.48;;;8.80;66.70;;;;;;6261950;28;20094;-77
2021/11/20 09:40:52;;;;;;;27.45;10.82;;;9.00;66.60;;;;;;6262835;28;20103;-77
2021/11/20 09:43:59;;;;;;;30.15;12.45;;;9.10;66.30;;;;;;6250490;28;20048;-76
2021/11/20 09:47:14;;;;;;;36.15;11.70;;;9.20;66.00;;;;;;6245798;28;20132;-76
2021/11/20 09:50:21;;;;;;;38.25;14.65;;;9.30;65.60;;;;;;6250494;28;20298;-77
2021/11/20 09:53:24;;;;;;;53.53;18.60;;;9.30;65.60;;;;;;6266013;28;20037;-78
2021/11/20 09:56:30;;;;;;;44.05;19.48;;;9.40;65.60;;;;;;6259967;28;20037;-77
2021/11/20 09:59:38;;;;;;;40.83;15.73;;;9.50;66.30;;;;;;6240097;28;20060;-77
2021/11/20 10:02:44;;;;;;;40.03;16.92;;;9.70;65.40;;;;;;6249728;28;20041;-76
2021/11/20 10:06:01;;;;;;;44.05;17.40;;;9.70;65.20;;;;;;6258052;28;20087;-77
2021/11/20 10:09:19;;;;;;;36.88;14.32;;;9.80;64.80;;;;;;6263683;28;20052;-78
2021/11/20 10:12:27;;;;;;;30.95;13.15;;;9.90;64.70;;;;;;6256581;28;20526;-77
2021/11/20 10:15:32;;;;;;;30.55;13.85;;;10.00;64.70;;;;;;6254777;28;20069;-77
2021/11/20 10:18:47;;;;;;;37.05;13.63;;;10.10;64.50;;;;;;6258146;28;20090;-78
2021/11/20 10:21:57;;;;;;;24.85;11.80;;;10.10;64.20;;;;;;6276344;28;20061;-80
2021/11/20 10:25:51;;;;;;;29.70;11.68;;;10.10;64.30;;;;;;6268356;28;20041;-78
2021/11/20 10:29:41;;;;;;;34.30;13.20;;;10.00;64.30;;;;;;6206966;28;20051;-77
2021/11/20 10:32:51;;;;;;;36.95;13.25;;;10.00;64.70;;;;;;6068539;29;20482;-77
2021/11/20 10:36:18;;;;;;;34.65;14.57;;;10.00;64.80;;;;;;6088917;29;20239;-77
2021/11/20 10:39:27;;;;;;;31.33;13.32;;;10.00;64.70;;;;;;6092328;29;20147;-77
2021/11/20 10:42:39;;;;;;;34.85;12.98;;;10.10;64.80;;;;;;6067506;29;20048;-76
2021/11/20 10:45:53;;;;;;;56.55;22.02;;;10.10;64.70;;;;;;6059728;29;20041;-78
2021/11/20 10:49:36;;;;;;;39.50;16.38;;;10.20;64.70;;;;;;6087328;29;20488;-78
2021/11/20 10:52:55;;;;;;;48.38;18.42;;;10.30;65.70;;;;;;6077304;29;20426;-76
2021/11/20 10:56:22;;;;;;;55.88;22.10;;;10.50;64.50;;;;;;6089808;29;20459;-76
2021/11/20 10:59:47;;;;;;;48.38;20.73;;;10.60;64.10;;;;;;6111239;28;20066;-77
2021/11/20 11:03:10;;;;;;;43.50;19.55;;;10.60;64.00;;;;;;6161137;28;20109;-76
2021/11/20 11:06:32;;;;;;;42.30;18.33;;;10.60;63.90;;;;;;6139136;28;20055;-78
2021/11/20 11:09:57;;;;;;;56.63;21.55;;;10.70;63.80;;;;;;6194839;28;20079;-78
2021/11/20 11:13:09;;;;;;;55.80;20.20;;;10.70;63.90;;;;;;6248068;28;20033;-78
2021/11/20 11:16:18;;;;;;;57.55;20.77;;;10.80;63.70;;;;;;6233665;28;20367;-77
2021/11/20 11:19:52;;;;;;;54.72;20.27;;;10.90;63.50;;;;;;6246458;28;20025;-77
2021/11/20 11:23:06;;;;;;;51.38;20.75;;;11.00;63.40;;;;;;6271069;28;20034;-76
2021/11/20 11:26:13;;;;;;;56.33;21.42;;;11.00;64.10;;;;;;6249028;28;20132;-78
2021/11/20 11:29:33;;;;;;;51.45;16.98;;;11.00;63.10;;;;;;6265035;28;20044;-77
2021/11/20 11:32:38;;;;;;;50.40;21.50;;;11.00;63.20;;;;;;6248958;28;20349;-76
2021/11/20 11:36:16;;;;;;;49.97;21.40;;;11.00;63.30;;;;;;6259994;28;20071;-76
2021/11/20 11:39:33;;;;;;;43.20;17.35;;;11.10;63.40;;;;;;6249401;28;20034;-78
2021/11/20 11:42:46;;;;;;;75.50;27.80;;;11.20;63.10;;;;;;6257709;28;20045;-77
2021/11/20 11:45:46;;;;;;;60.08;21.92;;;11.30;63.10;;;;;;6256602;28;20037;-76
2021/11/20 11:49:09;;;;;;;72.57;26.45;;;11.30;63.00;;;;;;6266440;28;20458;-76
2021/11/20 11:52:42;;;;;;;63.05;24.35;;;11.40;63.00;;;;;;6273757;28;20067;-77
2021/11/20 11:55:47;;;;;;;74.22;28.40;;;11.60;62.90;;;;;;6222236;28;20037;-77
2021/11/20 11:58:57;;;;;;;85.05;34.03;;;11.70;62.60;;;;;;6248370;28;20044;-77
2021/11/20 12:02:01;;;;;;;46.90;18.65;;;11.80;62.20;;;;;;6253109;28;20048;-77
2021/11/20 12:05:31;;;;;;;49.45;19.88;;;11.80;61.80;;;;;;6256666;28;20053;-78
2021/11/20 12:08:33;;;;;;;73.70;24.63;;;11.80;62.10;;;;;;6250211;28;20045;-78
2021/11/20 12:11:37;;;;;;;66.90;26.73;;;11.70;62.10;;;;;;6254247;28;20029;-78
2021/11/20 12:14:44;;;;;;;82.25;31.13;;;11.70;62.20;;;;;;6243325;28;20045;-78
2021/11/20 12:17:51;;;;;;;82.45;28.88;;;11.70;63.00;;;;;;6245308;28;20374;-76
2021/11/20 12:21:19;;;;;;;50.08;19.23;;;11.70;62.40;;;;;;6259442;28;20056;-76
2021/11/20 12:24:39;;;;;;;72.70;27.58;;;11.70;62.50;;;;;;6259936;28;20025;-75
2021/11/20 12:27:57;;;;;;;66.50;28.10;;;11.70;62.60;;;;;;6259826;28;20033;-75
2021/11/20 12:31:03;;;;;;;94.07;31.77;;;11.70;62.40;;;;;;6247969;28;20033;-75
2021/11/20 12:34:33;;;;;;;59.17;22.90;;;11.60;62.40;;;;;;6253896;28;20033;-76
2021/11/20 12:37:50;;;;;;;50.85;19.40;;;11.70;62.70;;;;;;6275640;28;20106;-76
2021/11/20 12:41:07;;;;;;;67.97;24.90;;;11.60;62.50;;;;;;6261874;28;20120;-75
2021/11/20 12:44:45;;;;;;;50.60;19.85;;;11.60;62.50;;;;;;6252338;28;20522;-76
2021/11/20 12:48:09;;;;;;;54.30;19.95;;;11.60;62.50;;;;;;6249464;28;20651;-77
2021/11/20 12:51:25;;;;;;;55.00;20.83;;;11.50;62.70;;;;;;6265011;28;20098;-76
2021/11/20 12:54:52;;;;;;;50.47;20.38;;;11.50;62.90;;;;;;6246646;28;20064;-76
2021/11/20 12:58:05;;;;;;;46.97;18.50;;;11.50;63.00;;;;;;6261295;28;20099;-77
2021/11/20 13:01:09;;;;;;;43.05;17.35;;;11.50;63.00;;;;;;6260265;28;20148;-77
2021/11/20 13:04:24;;;;;;;47.63;17.13;;;11.60;63.10;;;;;;6267752;28;20041;-78
2021/11/20 13:07:28;;;;;;;51.25;17.98;;;11.60;63.20;;;;;;6239679;28;20037;-75
2021/11/20 13:10:59;;;;;;;60.08;20.10;;;11.60;63.30;;;;;;6243834;28;20052;-76
2021/11/20 13:14:13;;;;;;;57.10;22.05;;;11.60;63.30;;;;;;6255986;28;20075;-75
2021/11/20 13:17:19;;;;;;;47.60;17.98;;;11.60;63.20;;;;;;6251830;28;20487;-76
2021/11/20 13:20:26;;;;;;;44.72;17.73;;;11.60;63.10;;;;;;6259916;28;20458;-77
2021/11/20 13:23:30;;;;;;;48.28;18.77;;;11.70;63.20;;;;;;6262805;28;20131;-76
2021/11/20 13:26:31;;;;;;;45.10;18.20;;;11.70;63.10;;;;;;6255911;28;20095;-76
2021/11/20 13:29:37;;;;;;;55.35;21.75;;;11.70;63.30;;;;;;6258559;28;20037;-75
2021/11/20 13:32:45;;;;;;;59.90;22.67;;;11.70;63.30;;;;;;6248998;28;20037;-77
2021/11/20 13:35:46;;;;;;;;;;;11.80;63.40;;;;;;6253065;28;20040;-77
2021/11/20 13:38:47;;;;;;;51.88;18.90;;;11.80;63.20;;;;;;6256728;28;20341;-77
2021/11/20 13:41:58;;;;;;;35.90;16.05;;;11.90;63.10;;;;;;6274005;28;20045;-77
2021/11/20 13:45:00;;;;;;;46.67;17.63;;;11.90;63.00;;;;;;6242525;28;20037;-78
2021/11/20 13:48:01;;;;;;;55.50;19.58;;;11.90;63.00;;;;;;6259304;28;20041;-77
2021/11/20 13:51:16;;;;;;;62.53;22.50;;;11.90;63.00;;;;;;6254536;28;20095;-78
2021/11/20 13:54:18;;;;;;;51.17;19.00;;;11.90;63.10;;;;;;6260697;28;20099;-76
2021/11/20 13:57:19;;;;;;;45.22;19.25;;;11.90;63.10;;;;;;6253681;28;20033;-78
2021/11/20 14:00:22;;;;;;;47.70;17.73;;;12.00;63.20;;;;;;6248180;28;20036;-77
2021/11/20 14:03:24;;;;;;;62.40;21.13;;;12.00;63.80;;;;;;6271667;28;20060;-77
2021/11/20 14:06:27;;;;;;;64.93;23.75;;;12.00;62.80;;;;;;6284182;28;20036;-77
2021/11/20 14:09:28;;;;;;;55.92;21.77;;;12.00;62.80;;;;;;6261870;28;20025;-76
2021/11/20 14:12:51;;;;;;;39.88;17.27;;;12.00;62.80;;;;;;6241034;28;20029;-75
2021/11/20 14:15:54;;;;;;;47.47;19.05;;;12.00;63.00;;;;;;6245547;28;20045;-77
2021/11/20 14:18:55;;;;;;;50.47;19.52;;;11.90;62.90;;;;;;6278169;28;20339;-78
2021/11/20 14:22:01;;;;;;;46.40;17.80;;;12.00;63.10;;;;;;6254299;28;20040;-77
2021/11/20 14:25:02;;;;;;;49.28;17.10;;;12.00;63.00;;;;;;6224652;28;20040;-77
2021/11/20 14:28:04;;;;;;;46.45;19.20;;;12.10;63.10;;;;;;6249255;28;20034;-76
2021/11/20 14:31:13;;;;;;;39.97;16.27;;;12.10;62.90;;;;;;6256007;28;20037;-76
2021/11/20 14:34:18;;;;;;;39.40;16.38;;;12.20;62.90;;;;;;6263425;28;20116;-77
2021/11/20 14:37:28;;;;;;;52.70;17.42;;;12.20;62.90;;;;;;6255919;28;20050;-76
2021/11/20 14:40:29;;;;;;;50.85;20.30;;;12.20;62.70;;;;;;6244350;28;20462;-75
2021/11/20 14:43:34;;;;;;;41.50;17.58;;;12.20;62.70;;;;;;6224413;28;20037;-75
2021/11/20 14:47:10;;;;;;;51.58;19.23;;;12.20;62.70;;;;;;6251336;28;20132;-75
2021/11/20 14:50:22;;;;;;;46.92;18.30;;;12.20;62.70;;;;;;6234129;28;20041;-76
2021/11/20 14:53:32;;;;;;;42.65;17.92;;;12.20;62.60;;;;;;6264896;28;20087;-76
2021/11/20 14:56:33;;;;;;;43.50;17.88;;;12.20;62.60;;;;;;6254445;28;20609;-75
2021/11/20 14:59:36;;;;;;;43.47;17.38;;;12.20;62.60;;;;;;6266122;28;20104;-77
2021/11/20 15:02:37;;;;;;;52.45;18.13;;;12.20;62.60;;;;;;6240580;28;20466;-76
2021/11/20 15:05:38;;;;;;;51.33;18.05;;;12.20;62.70;;;;;;6266443;28;20036;-75
2021/11/20 15:08:39;;;;;;;40.20;18.08;;;12.10;62.70;;;;;;6265031;28;20101;-77
2021/11/20 15:11:40;;;;;;;46.30;17.30;;;12.10;62.80;;;;;;6243341;28;20781;-76
2021/11/20 15:14:41;;;;;;;43.72;16.25;;;12.10;62.90;;;;;;6263633;28;20473;-76
2021/11/20 15:17:42;;;;;;;40.22;16.25;;;12.00;62.90;;;;;;6264311;28;20327;-75
2021/11/20 15:20:44;;;;;;;44.58;18.35;;;12.00;63.00;;;;;;6260190;28;20103;-75
2021/11/20 15:23:46;;;;;;;45.13;18.73;;;12.00;63.00;;;;;;6256310;28;20041;-76
2021/11/20 15:26:49;;;;;;;46.70;18.67;;;12.00;63.00;;;;;;6269532;28;20029;-77
2021/11/20 15:29:50;;;;;;;36.53;16.35;;;12.00;63.10;;;;;;6240206;28;20124;-75
2021/11/20 15:32:51;;;;;;;46.45;17.17;;;11.90;63.10;;;;;;6261894;28;20090;-76
2021/11/20 15:35:52;;;;;;;47.90;18.70;;;11.90;63.10;;;;;;6240263;28;20033;-77
2021/11/20 15:38:53;;;;;;;43.15;18.30;;;11.90;63.10;;;;;;6237592;28;20047;-74
2021/11/20 15:41:54;;;;;;;59.22;22.70;;;11.90;63.30;;;;;;6253602;28;20057;-75
2021/11/20 15:44:55;;;;;;;80.18;28.23;;;11.80;63.30;;;;;;6257426;28;20055;-77
2021/11/20 15:47:57;;;;;;;46.97;19.15;;;11.80;63.40;;;;;;6251658;28;20029;-75
2021/11/20 15:50:58;;;;;;;44.45;18.73;;;11.80;63.40;;;;;;6264396;28;20414;-73
2021/11/20 15:53:59;;;;;;;50.67;16.95;;;11.70;63.50;;;;;;6255296;28;20330;-75
2021/11/20 15:57:00;;;;;;;39.22;16.08;;;11.70;63.60;;;;;;6244754;28;20037;-75
2021/11/20 16:00:07;;;;;;;39.00;17.63;;;11.70;63.80;;;;;;6245090;28;20042;-76
2021/11/20 16:03:12;;;;;;;69.07;26.15;;;11.60;63.80;;;;;;6261577;28;20082;-77
2021/11/20 16:06:13;;;;;;;60.45;21.73;;;11.60;64.00;;;;;;6248103;28;20050;-75
2021/11/20 16:09:18;;;;;;;47.95;19.05;;;11.60;64.00;;;;;;6276185;28;20044;-75
2021/11/20 16:12:19;;;;;;;40.20;16.67;;;11.60;64.00;;;;;;6243548;28;20098;-73
2021/11/20 16:15:20;;;;;;;35.25;15.13;;;11.60;64.20;;;;;;6252447;28;20045;-74